createdAt,value
2018-03-21T00:02:24.036Z,78.62
2018-03-21T00:04:51.520Z,78.80
2018-03-21T00:07:19.082Z,78.81
2018-03-21T00:09:46.536Z,79.17
2018-03-21T00:12:14.002Z,78.83
2018-03-21T00:14:41.557Z,78.70
2018-03-21T00:17:09.066Z,78.72
2018-03-21T00:19:37.571Z,78.93
2018-03-21T00:22:05.052Z,79.01
2018-03-21T00:24:32.527Z,79.00
2018-03-21T00:26:59.972Z,78.73
2018-03-21T00:29:27.551Z,78.80
2018-03-21T00:31:54.995Z,78.74
2018-03-21T00:34:22.458Z,78.77
2018-03-21T00:36:49.982Z,78.96
2018-03-21T00:39:18.078Z,78.86
2018-03-21T00:41:45.630Z,78.78
2018-03-21T00:44:13.083Z,78.74
2018-03-21T00:46:40.572Z,78.39
2018-03-21T00:49:08.107Z,78.34
2018-03-21T00:51:35.604Z,78.40
2018-03-21T00:54:03.100Z,78.28
2018-03-21T00:56:30.563Z,78.54
2018-03-21T00:58:58.004Z,78.74
2018-03-21T01:01:25.466Z,78.63
2018-03-21T01:03:52.946Z,78.82
2018-03-21T01:06:20.406Z,78.84
2018-03-21T01:08:47.861Z,78.94
2018-03-21T01:11:15.306Z,79.03
2018-03-21T01:13:42.780Z,79.00
2018-03-21T01:16:10.240Z,78.82
2018-03-21T01:18:37.812Z,78.86
2018-03-21T01:21:05.332Z,78.77
2018-03-21T01:23:32.842Z,78.75
2018-03-21T01:26:00.318Z,78.74
2018-03-21T01:28:27.814Z,78.51
2018-03-21T01:30:55.332Z,78.50
2018-03-21T01:33:22.792Z,78.53
2018-03-21T01:35:50.266Z,78.55
2018-03-21T01:38:17.736Z,78.46
2018-03-21T01:40:45.216Z,78.49
2018-03-21T01:43:12.676Z,78.26
2018-03-21T01:45:40.134Z,78.24
2018-03-21T01:48:07.591Z,78.12
2018-03-21T01:50:35.145Z,78.04
2018-03-21T01:53:10.406Z,78.10
2018-03-21T01:55:37.919Z,78.09
2018-03-21T01:58:05.416Z,77.88
2018-03-21T02:00:33.115Z,77.92
2018-03-21T02:03:00.624Z,77.68
2018-03-21T02:05:28.055Z,77.94
2018-03-21T02:07:55.543Z,78.00
2018-03-21T02:10:23.864Z,77.83
2018-03-21T02:12:51.315Z,77.95
2018-03-21T02:15:18.805Z,78.13
2018-03-21T02:17:46.264Z,78.12
2018-03-21T02:20:13.743Z,78.08
2018-03-21T02:22:41.202Z,77.97
2018-03-21T02:25:08.669Z,77.76
2018-03-21T02:27:36.157Z,77.25
2018-03-21T02:30:03.613Z,77.26
2018-03-21T02:32:31.074Z,77.54
2018-03-21T02:34:58.536Z,78.11
2018-03-21T02:37:25.969Z,78.51
2018-03-21T02:39:53.405Z,78.67
2018-03-21T02:42:20.862Z,78.15
2018-03-21T02:44:48.401Z,78.19
2018-03-21T02:47:15.854Z,78.48
2018-03-21T02:49:43.316Z,78.38
2018-03-21T02:52:10.902Z,78.78
2018-03-21T02:54:38.351Z,78.85
2018-03-21T02:57:05.961Z,78.58
2018-03-21T02:59:33.546Z,78.54
2018-03-21T03:02:01.004Z,78.01
2018-03-21T03:04:28.503Z,77.84
2018-03-21T03:06:55.946Z,78.46
2018-03-21T03:09:23.373Z,78.72
2018-03-21T03:11:50.870Z,78.30
2018-03-21T03:14:18.328Z,78.07
2018-03-21T03:16:45.780Z,78.06
2018-03-21T03:19:13.229Z,78.10
2018-03-21T03:21:40.665Z,78.12
2018-03-21T03:24:08.111Z,78.22
2018-03-21T03:26:35.600Z,78.36
2018-03-21T03:29:03.060Z,77.90
2018-03-21T03:31:30.514Z,78.00
2018-03-21T03:33:57.997Z,78.14
2018-03-21T03:36:25.475Z,78.13
2018-03-21T03:38:52.939Z,78.38
2018-03-21T03:41:20.369Z,78.42
2018-03-21T03:43:47.807Z,78.68
2018-03-21T03:46:15.253Z,78.54
2018-03-21T03:48:42.681Z,78.46
2018-03-21T03:51:10.113Z,78.37
2018-03-21T03:53:37.571Z,78.46
2018-03-21T03:56:05.097Z,78.21
2018-03-21T03:58:32.577Z,78.09
2018-03-21T04:01:00.012Z,77.95
2018-03-21T04:03:27.449Z,77.90
2018-03-21T04:05:55.025Z,77.82
2018-03-21T04:08:22.475Z,77.94
2018-03-21T04:10:49.955Z,78.02
2018-03-21T04:13:17.423Z,78.48
2018-03-21T04:15:44.883Z,78.89
2018-03-21T04:18:12.351Z,79.02
2018-03-21T04:20:39.837Z,79.39
2018-03-21T04:23:07.295Z,79.61
2018-03-21T04:25:34.747Z,79.84
2018-03-21T04:28:02.305Z,79.67
2018-03-21T04:30:30.587Z,79.89
2018-03-21T04:32:58.077Z,79.89
2018-03-21T04:35:26.147Z,80.09
2018-03-21T04:38:07.836Z,79.92
2018-03-21T04:40:35.505Z,79.63
2018-03-21T04:43:03.138Z,79.65
2018-03-21T04:45:30.617Z,79.94
2018-03-21T04:47:58.836Z,79.82
2018-03-21T04:50:29.923Z,79.90
2018-03-21T04:52:57.370Z,79.65
2018-03-21T04:55:24.850Z,79.32
2018-03-21T05:01:04.106Z,79.17
2018-03-21T05:03:35.795Z,78.75
2018-03-21T05:06:04.446Z,79.09
2018-03-21T05:08:32.232Z,79.26
2018-03-21T05:11:00.018Z,79.64
2018-03-21T05:13:27.562Z,79.45
2018-03-21T05:15:55.187Z,79.82
2018-03-21T05:18:22.654Z,79.74
2018-03-21T05:20:50.249Z,79.91
2018-03-21T05:23:18.299Z,79.87
2018-03-21T05:25:45.959Z,79.79
2018-03-21T05:28:14.590Z,79.64
2018-03-21T05:30:42.127Z,79.69
2018-03-21T05:33:09.580Z,79.37
2018-03-21T05:35:37.054Z,79.28
2018-03-21T05:38:04.566Z,79.25
2018-03-21T05:40:32.051Z,79.13
2018-03-21T05:42:59.588Z,79.12
2018-03-21T05:45:27.210Z,78.75
2018-03-21T05:47:54.792Z,78.83
2018-03-21T05:50:22.270Z,78.91
2018-03-21T05:52:49.736Z,78.17
2018-03-21T05:55:18.044Z,78.07
2018-03-21T05:57:45.577Z,78.25
2018-03-21T06:00:13.030Z,78.44
2018-03-21T06:02:40.538Z,78.85
2018-03-21T06:05:08.926Z,78.66
2018-03-21T06:07:36.426Z,78.33
2018-03-21T06:10:03.974Z,78.75
2018-03-21T06:12:31.441Z,79.34
2018-03-21T06:14:58.997Z,79.73
2018-03-21T06:17:26.428Z,79.70
2018-03-21T06:19:53.910Z,79.65
2018-03-21T06:22:21.361Z,79.83
2018-03-21T06:24:48.810Z,79.36
2018-03-21T06:27:16.228Z,79.33
2018-03-21T06:29:43.696Z,79.45
2018-03-21T06:32:11.314Z,79.13
2018-03-21T06:34:38.782Z,78.75
2018-03-21T06:37:06.264Z,79.26
2018-03-21T06:39:33.720Z,79.51
2018-03-21T06:42:01.178Z,79.67
2018-03-21T06:44:28.622Z,79.77
2018-03-21T06:46:56.501Z,79.91
2018-03-21T06:49:24.014Z,79.97
2018-03-21T06:51:52.110Z,79.73
2018-03-21T06:54:20.671Z,79.36
2018-03-21T06:56:48.149Z,79.45
2018-03-21T06:59:15.612Z,79.54
2018-03-21T07:01:43.095Z,79.47
2018-03-21T07:04:10.564Z,79.96
2018-03-21T07:06:38.054Z,79.98
2018-03-21T07:09:05.573Z,80.12
2018-03-21T07:11:33.080Z,80.07
2018-03-21T07:14:12.472Z,79.89
2018-03-21T07:16:42.751Z,79.85
2018-03-21T07:19:10.214Z,79.83
2018-03-21T07:21:37.671Z,79.68
2018-03-21T07:24:05.159Z,79.81
2018-03-21T07:26:32.669Z,79.36
2018-03-21T07:29:00.210Z,79.16
2018-03-21T07:31:27.698Z,79.13
2018-03-21T07:33:55.295Z,79.09
2018-03-21T07:36:22.774Z,79.04
2018-03-21T07:38:50.360Z,78.87
2018-03-21T07:41:17.864Z,78.93
2018-03-21T07:43:45.404Z,78.69
2018-03-21T07:46:12.922Z,78.51
2018-03-21T07:48:40.444Z,78.46
2018-03-21T07:51:07.908Z,78.29
2018-03-21T07:53:35.372Z,77.88
2018-03-21T07:56:02.956Z,77.14
2018-03-21T07:58:30.413Z,76.93
2018-03-21T08:00:57.943Z,77.11
2018-03-21T08:03:25.479Z,76.91
2018-03-21T08:05:53.052Z,76.55
2018-03-21T08:08:25.545Z,76.46
2018-03-21T08:10:53.048Z,76.32
2018-03-21T08:13:20.562Z,75.98
2018-03-21T08:15:48.176Z,75.81
2018-03-21T08:18:29.982Z,75.94
2018-03-21T08:20:57.474Z,75.55
2018-03-21T08:23:25.021Z,75.02
2018-03-21T08:25:52.709Z,74.45
2018-03-21T08:28:34.390Z,74.65
2018-03-21T08:31:01.955Z,74.34
2018-03-21T08:33:29.406Z,73.35
2018-03-21T08:35:56.916Z,73.58
2018-03-21T08:38:29.392Z,73.11
2018-03-21T08:40:56.902Z,73.14
2018-03-21T08:43:24.403Z,72.46
2018-03-21T08:45:51.876Z,72.09
2018-03-21T08:48:19.320Z,71.88
2018-03-21T08:50:46.850Z,71.12
2018-03-21T08:53:14.374Z,71.11
2018-03-21T08:55:41.905Z,70.80
2018-03-21T08:58:09.388Z,69.86
2018-03-21T09:00:38.860Z,69.56
2018-03-21T09:03:06.702Z,68.86
2018-03-21T09:05:34.218Z,67.15
2018-03-21T09:08:01.672Z,66.27
2018-03-21T09:10:29.150Z,65.91
2018-03-21T09:12:56.758Z,65.46
2018-03-21T09:15:24.214Z,65.20
2018-03-21T09:17:56.721Z,65.38
2018-03-21T09:20:24.252Z,64.12
2018-03-21T09:22:51.736Z,63.11
2018-03-21T09:25:19.204Z,63.59
2018-03-21T09:27:46.745Z,62.23
2018-03-21T09:30:14.194Z,60.06
2018-03-21T09:32:41.671Z,59.94
2018-03-21T09:35:09.160Z,60.20
2018-03-21T09:37:36.643Z,60.14
2018-03-21T09:40:04.166Z,59.72
2018-03-21T09:42:31.656Z,58.00
2018-03-21T09:44:59.214Z,57.85
2018-03-21T09:47:26.850Z,57.55
2018-03-21T09:49:54.390Z,57.62
2018-03-21T09:52:21.840Z,55.49
2018-03-21T09:54:49.300Z,54.38
2018-03-21T09:57:16.761Z,52.51
2018-03-21T09:59:44.236Z,50.95
2018-03-21T10:02:12.414Z,50.72
2018-03-21T10:04:39.928Z,50.33
2018-03-21T10:07:08.039Z,49.56
2018-03-21T10:09:35.561Z,48.69
2018-03-21T10:12:03.060Z,47.91
2018-03-21T10:14:30.614Z,46.81
2018-03-21T10:16:58.040Z,45.60
2018-03-21T10:19:25.606Z,44.88
2018-03-21T10:21:53.153Z,41.50
2018-03-21T10:24:20.708Z,41.32
2018-03-21T10:26:48.166Z,40.56
2018-03-21T10:29:15.685Z,40.28
2018-03-21T10:31:43.158Z,39.75
2018-03-21T10:34:10.633Z,37.43
2018-03-21T10:36:38.111Z,35.43
2018-03-21T10:39:05.628Z,35.90
2018-03-21T10:41:33.082Z,34.81
2018-03-21T10:44:00.637Z,35.68
2018-03-21T10:46:28.148Z,35.69
2018-03-21T10:48:55.670Z,35.73
2018-03-21T10:51:23.134Z,35.16
2018-03-21T10:53:50.624Z,34.01
2018-03-21T10:56:18.135Z,34.96
2018-03-21T10:58:45.756Z,34.99
2018-03-21T11:01:18.728Z,35.15
2018-03-21T11:03:51.878Z,35.69
2018-03-21T11:06:19.402Z,34.12
2018-03-21T11:08:47.911Z,32.58
2018-03-21T11:11:15.389Z,32.65
2018-03-21T11:13:42.987Z,34.23
2018-03-21T11:16:10.829Z,35.78
2018-03-21T11:18:38.362Z,36.08
2018-03-21T11:21:05.876Z,35.87
2018-03-21T11:23:33.337Z,36.27
2018-03-21T11:26:00.841Z,37.23
2018-03-21T11:28:28.292Z,36.49
2018-03-21T11:30:55.764Z,37.17
2018-03-21T11:33:23.285Z,37.11
2018-03-21T11:35:50.800Z,36.37
2018-03-21T11:38:18.365Z,35.48
2018-03-21T11:40:45.875Z,32.66
2018-03-21T11:43:13.390Z,32.95
2018-03-21T11:45:40.904Z,33.75
2018-03-21T11:48:08.358Z,32.84
2018-03-21T11:50:35.889Z,32.42
2018-03-21T11:53:03.367Z,32.27
2018-03-21T11:55:30.937Z,32.48
2018-03-21T11:57:58.440Z,31.84
2018-03-21T12:00:25.952Z,31.87
2018-03-21T12:02:53.503Z,32.49
2018-03-21T12:05:21.181Z,32.65
2018-03-21T12:07:48.660Z,32.21
2018-03-21T12:10:16.301Z,32.58
2018-03-21T12:12:43.835Z,32.90
2018-03-21T12:15:11.314Z,33.21
2018-03-21T12:17:38.831Z,33.00
2018-03-21T12:20:06.309Z,33.57
2018-03-21T12:22:34.643Z,33.28
2018-03-21T12:25:02.127Z,34.01
2018-03-21T12:27:29.597Z,33.89
2018-03-21T12:29:57.095Z,35.20
2018-03-21T12:32:24.579Z,33.32
2018-03-21T12:34:52.069Z,34.29
2018-03-21T12:37:19.527Z,34.30
2018-03-21T12:39:47.059Z,34.59
2018-03-21T12:42:14.664Z,34.09
2018-03-21T12:44:42.116Z,33.97
2018-03-21T12:47:09.660Z,34.82
2018-03-21T12:49:37.185Z,34.69
2018-03-21T12:52:04.843Z,34.08
2018-03-21T12:54:32.358Z,32.84
2018-03-21T12:56:59.895Z,33.09
2018-03-21T12:59:29.921Z,32.89
2018-03-21T13:01:57.457Z,32.74
2018-03-21T13:04:25.031Z,33.08
2018-03-21T13:06:52.507Z,32.12
2018-03-21T13:09:19.954Z,31.32
2018-03-21T13:11:47.530Z,31.11
2018-03-21T13:14:14.993Z,31.87
2018-03-21T13:16:42.518Z,31.60
2018-03-21T13:19:10.032Z,31.29
2018-03-21T13:21:37.660Z,32.93
2018-03-21T13:24:05.027Z,32.18
2018-03-21T13:26:32.849Z,31.57
2018-03-21T13:29:09.990Z,31.96
2018-03-21T13:31:37.479Z,31.02
2018-03-21T13:34:05.289Z,30.43
2018-03-21T13:36:33.003Z,28.93
2018-03-21T13:39:00.617Z,28.48
2018-03-21T13:41:28.203Z,28.78
2018-03-21T13:43:55.793Z,28.79
2018-03-21T13:46:23.271Z,29.81
2018-03-21T13:48:51.230Z,30.82
2018-03-21T13:51:18.706Z,32.14
2018-03-21T13:53:46.177Z,32.34
2018-03-21T13:56:13.701Z,33.58
2018-03-21T13:58:41.271Z,34.42
2018-03-21T14:01:08.769Z,34.83
2018-03-21T14:03:36.276Z,34.84
2018-03-21T14:06:03.746Z,35.22
2018-03-21T14:08:31.374Z,35.75
2018-03-21T14:10:58.844Z,35.25
2018-03-21T14:13:26.311Z,35.49
2018-03-21T14:18:35.805Z,35.33
2018-03-21T14:21:03.248Z,34.81
2018-03-21T14:23:30.756Z,35.29
2018-03-21T14:25:58.246Z,35.80
2018-03-21T14:28:30.763Z,35.38
2018-03-21T14:30:58.283Z,35.61
2018-03-21T14:33:25.796Z,36.08
2018-03-21T14:35:54.251Z,35.57
2018-03-21T14:38:22.004Z,36.49
2018-03-21T14:40:49.495Z,37.66
2018-03-21T14:43:16.977Z,38.38
2018-03-21T14:45:44.482Z,39.27
2018-03-21T14:48:12.007Z,39.75
2018-03-21T14:50:39.521Z,39.72
2018-03-21T14:53:06.981Z,40.75
2018-03-21T14:55:34.489Z,41.25
2018-03-21T14:58:01.990Z,40.83
2018-03-21T15:00:29.465Z,40.10
2018-03-21T15:02:57.061Z,40.31
2018-03-21T15:05:24.559Z,40.84
2018-03-21T15:07:52.088Z,41.71
2018-03-21T15:10:19.549Z,41.49
2018-03-21T15:12:47.051Z,41.66
2018-03-21T15:15:14.546Z,40.11
2018-03-21T15:17:42.001Z,40.89
2018-03-21T15:20:09.480Z,41.81
2018-03-21T15:22:37.190Z,41.52
2018-03-21T15:25:04.697Z,41.66
2018-03-21T15:27:32.192Z,41.64
2018-03-21T15:29:59.712Z,41.78
2018-03-21T15:32:27.196Z,42.07
2018-03-21T15:34:54.731Z,41.70
2018-03-21T15:37:22.243Z,41.99
2018-03-21T15:39:49.718Z,42.94
2018-03-21T15:42:18.130Z,41.99
2018-03-21T15:44:45.587Z,41.96
2018-03-21T15:47:13.126Z,42.25
2018-03-21T15:49:40.634Z,42.13
2018-03-21T15:52:08.146Z,41.77
2018-03-21T15:54:35.625Z,42.06
2018-03-21T15:57:03.276Z,42.32
2018-03-21T15:59:30.768Z,41.94
2018-03-21T16:01:58.244Z,41.92
2018-03-21T16:04:25.708Z,42.31
2018-03-21T16:06:53.280Z,42.59
2018-03-21T16:09:20.796Z,42.73
2018-03-21T16:11:48.312Z,42.63
2018-03-21T16:14:15.902Z,42.94
2018-03-21T16:16:43.448Z,42.74
2018-03-21T16:19:11.002Z,43.01
2018-03-21T16:21:38.548Z,43.38
2018-03-21T16:24:06.108Z,43.05
2018-03-21T16:26:33.636Z,43.30
2018-03-21T16:29:01.142Z,43.05
2018-03-21T16:31:28.672Z,42.21
2018-03-21T16:33:56.168Z,42.77
2018-03-21T16:36:23.658Z,42.90
2018-03-21T16:38:51.123Z,42.24
2018-03-21T16:41:18.630Z,42.95
2018-03-21T16:43:46.123Z,42.83
2018-03-21T16:46:13.618Z,43.23
2018-03-21T16:48:41.102Z,43.57
2018-03-21T16:51:08.560Z,43.50
2018-03-21T16:53:36.036Z,43.30
2018-03-21T16:56:03.565Z,43.87
2018-03-21T16:58:31.087Z,43.51
2018-03-21T17:00:58.578Z,43.16
2018-03-21T17:03:26.075Z,43.81
2018-03-21T17:05:53.604Z,42.78
2018-03-21T17:08:21.119Z,43.99
2018-03-21T17:10:48.628Z,43.17
2018-03-21T17:13:16.141Z,42.64
2018-03-21T17:15:43.635Z,42.96
2018-03-21T17:18:11.159Z,43.54
2018-03-21T17:20:38.694Z,43.39
2018-03-21T17:23:06.182Z,43.00
2018-03-21T17:25:33.711Z,43.39
2018-03-21T17:28:01.212Z,43.33
2018-03-21T17:30:28.674Z,43.54
2018-03-21T17:32:56.164Z,43.65
2018-03-21T17:35:23.654Z,44.52
2018-03-21T17:37:51.196Z,43.98
2018-03-21T17:40:18.779Z,43.51
2018-03-21T17:42:46.217Z,42.97
2018-03-21T17:45:13.681Z,43.30
2018-03-21T17:47:41.190Z,43.38
2018-03-21T17:50:08.673Z,43.28
2018-03-21T17:52:36.166Z,43.66
2018-03-21T17:55:03.672Z,44.17
2018-03-21T17:57:31.146Z,43.97
2018-03-21T17:59:58.697Z,44.01
2018-03-21T18:02:26.182Z,44.40
2018-03-21T18:04:53.700Z,44.34
2018-03-21T18:07:21.208Z,44.62
2018-03-21T18:09:48.838Z,44.81
2018-03-21T18:12:16.341Z,44.96
2018-03-21T18:14:43.846Z,45.41
2018-03-21T18:17:11.353Z,45.19
2018-03-21T18:19:39.062Z,45.22
2018-03-21T18:22:06.570Z,45.40
2018-03-21T18:24:34.055Z,45.47
2018-03-21T18:27:01.577Z,45.14
2018-03-21T18:29:29.046Z,44.92
2018-03-21T18:31:56.583Z,45.16
2018-03-21T18:34:24.068Z,45.49
2018-03-21T18:36:51.614Z,45.67
2018-03-21T18:39:19.084Z,45.83
2018-03-21T18:41:46.655Z,46.13
2018-03-21T18:44:14.174Z,46.20
2018-03-21T18:46:41.650Z,46.18
2018-03-21T18:49:09.274Z,46.10
2018-03-21T18:51:36.808Z,46.15
2018-03-21T18:54:04.442Z,45.96
2018-03-21T18:56:31.983Z,46.21
2018-03-21T18:58:59.544Z,46.31
2018-03-21T19:01:27.049Z,46.16
2018-03-21T19:03:54.584Z,46.27
2018-03-21T19:06:22.105Z,46.38
2018-03-21T19:08:49.635Z,46.59
2018-03-21T19:11:17.263Z,46.73
2018-03-21T19:13:44.770Z,46.85
2018-03-21T19:16:12.339Z,46.56
2018-03-21T19:18:39.885Z,47.02
2018-03-21T19:21:07.454Z,47.04
2018-03-21T19:23:35.083Z,47.11
2018-03-21T19:26:02.696Z,47.19
2018-03-21T19:28:30.242Z,47.30
2018-03-21T19:30:58.838Z,47.53
2018-03-21T19:33:26.418Z,47.49
2018-03-21T19:35:53.952Z,47.70
2018-03-21T19:38:21.493Z,47.67
2018-03-21T19:40:49.052Z,47.73
2018-03-21T19:43:16.677Z,47.29
2018-03-21T19:45:44.209Z,47.33
2018-03-21T19:48:11.721Z,46.71
2018-03-21T19:50:39.325Z,46.79
2018-03-21T19:53:06.920Z,46.97
2018-03-21T19:55:34.396Z,46.75
2018-03-21T19:58:01.963Z,46.76
2018-03-21T20:00:29.499Z,46.94
2018-03-21T20:02:56.970Z,46.96
2018-03-21T20:05:24.479Z,47.27
2018-03-21T20:07:51.972Z,47.30
2018-03-21T20:10:19.545Z,47.33
2018-03-21T20:12:47.109Z,47.10
2018-03-21T20:15:14.677Z,47.26
2018-03-21T20:17:42.246Z,47.38
2018-03-21T20:20:09.756Z,47.81
2018-03-21T20:22:37.274Z,47.76
2018-03-21T20:25:04.770Z,47.69
2018-03-21T20:27:32.263Z,47.76
2018-03-21T20:29:59.768Z,47.37
2018-03-21T20:32:27.260Z,47.83
2018-03-21T20:34:54.790Z,48.05
2018-03-21T20:37:22.273Z,48.33
2018-03-21T20:39:49.734Z,48.15
2018-03-21T20:42:17.217Z,48.43
2018-03-21T20:44:44.681Z,48.63
2018-03-21T20:47:17.216Z,48.47
2018-03-21T20:49:44.751Z,48.59
2018-03-21T20:52:12.239Z,48.37
2018-03-21T20:54:39.712Z,48.54
2018-03-21T20:57:07.224Z,48.80
2018-03-21T20:59:35.491Z,48.73
2018-03-21T21:02:02.936Z,48.70
2018-03-21T21:04:30.449Z,48.28
2018-03-21T21:06:58.030Z,48.56
2018-03-21T21:09:25.639Z,48.66
2018-03-21T21:11:53.082Z,48.90
2018-03-21T21:14:20.605Z,49.07
2018-03-21T21:16:48.106Z,49.29
2018-03-21T21:19:15.615Z,49.18
2018-03-21T21:21:43.081Z,49.38
2018-03-21T21:24:10.693Z,49.58
2018-03-21T21:26:38.263Z,49.27
2018-03-21T21:29:05.755Z,49.30
2018-03-21T21:31:33.253Z,49.62
2018-03-21T21:34:00.759Z,49.45
2018-03-21T21:36:28.263Z,49.89
2018-03-21T21:38:55.790Z,49.87
2018-03-21T21:41:23.367Z,49.97
2018-03-21T21:43:50.881Z,49.98
2018-03-21T21:46:18.385Z,49.85
2018-03-21T21:48:55.478Z,49.92
2018-03-21T21:51:23.216Z,50.25
2018-03-21T21:53:50.794Z,50.60
2018-03-21T21:56:18.240Z,50.48
2018-03-21T21:58:45.703Z,50.58
2018-03-21T22:01:13.193Z,50.80
2018-03-21T22:03:40.699Z,51.06
2018-03-21T22:06:08.280Z,51.36
2018-03-21T22:08:35.740Z,51.39
2018-03-21T22:11:03.329Z,51.44
2018-03-21T22:13:30.763Z,51.65
2018-03-21T22:15:58.246Z,51.87
2018-03-21T22:18:26.053Z,51.88
2018-03-21T22:20:53.580Z,52.31
2018-03-21T22:23:21.052Z,52.52
2018-03-21T22:25:48.526Z,52.94
2018-03-21T22:28:16.146Z,53.13
2018-03-21T22:30:43.675Z,53.06
2018-03-21T22:33:11.088Z,53.24
2018-03-21T22:35:38.577Z,53.52
2018-03-21T22:38:06.163Z,53.99
2018-03-21T22:40:33.608Z,54.32
2018-03-21T22:43:01.460Z,54.54
2018-03-21T22:45:28.961Z,54.78
2018-03-21T22:47:56.382Z,55.07
2018-03-21T22:50:23.857Z,55.25
2018-03-21T22:52:51.310Z,55.55
2018-03-21T22:55:19.745Z,55.83
2018-03-21T22:57:48.127Z,56.04
2018-03-21T23:00:15.805Z,56.07
2018-03-21T23:02:43.342Z,55.94
2018-03-21T23:05:10.821Z,56.46
2018-03-21T23:07:38.330Z,56.61
2018-03-21T23:10:05.787Z,56.65
2018-03-21T23:12:33.346Z,56.73
2018-03-21T23:15:00.851Z,57.23
2018-03-21T23:17:28.303Z,57.40
2018-03-21T23:19:55.819Z,57.66
2018-03-21T23:22:23.323Z,57.97
2018-03-21T23:24:50.778Z,58.07
2018-03-21T23:27:18.355Z,58.34
2018-03-21T23:29:45.838Z,58.24
2018-03-21T23:32:13.559Z,58.27
2018-03-21T23:34:41.018Z,58.46
2018-03-21T23:37:08.531Z,58.54
2018-03-21T23:39:36.061Z,58.65
2018-03-21T23:42:03.505Z,58.86
2018-03-21T23:44:31.251Z,58.96
2018-03-21T23:46:58.699Z,58.85
2018-03-21T23:49:26.162Z,59.01
2018-03-21T23:51:53.671Z,59.22
2018-03-21T23:54:21.179Z,59.39
2018-03-21T23:56:48.758Z,59.46
2018-03-21T23:59:16.271Z,59.75
